sensor_id;sensor_type;location;lat;lon;timestamp;P1;durP1;ratioP1;P2;durP2;ratioP2
18194;SDS011;9223;50.988;3.162;2024-01-25T00:05:16;20.48;;;4.68;;
18194;SDS011;9223;50.988;3.162;2024-01-25T00:11:20;23.77;;;4.47;;
18194;SDS011;9223;50.988;3.162;2024-01-25T00:17:25;18.67;;;4.30;;
18194;SDS011;9223;50.988;3.162;2024-01-25T00:23:29;23.42;;;4.55;;
18194;SDS011;9223;50.988;3.162;2024-01-25T00:29:32;19.88;;;4.45;;
18194;SDS011;9223;50.988;3.162;2024-01-25T00:35:39;27.38;;;5.38;;
18194;SDS011;9223;50.988;3.162;2024-01-25T00:41:42;24.30;;;4.35;;
18194;SDS011;9223;50.988;3.162;2024-01-25T00:47:47;21.33;;;4.82;;
18194;SDS011;9223;50.988;3.162;2024-01-25T00:53:53;20.83;;;5.63;;
18194;SDS011;9223;50.988;3.162;2024-01-25T00:59:56;22.55;;;5.35;;
18194;SDS011;9223;50.988;3.162;2024-01-25T01:06:00;24.95;;;4.40;;
18194;SDS011;9223;50.988;3.162;2024-01-25T01:12:05;15.93;;;4.53;;
18194;SDS011;9223;50.988;3.162;2024-01-25T01:18:09;17.23;;;3.45;;
18194;SDS011;9223;50.988;3.162;2024-01-25T01:24:13;18.45;;;4.78;;
18194;SDS011;9223;50.988;3.162;2024-01-25T01:30:18;20.60;;;4.03;;
18194;SDS011;9223;50.988;3.162;2024-01-25T01:36:22;16.27;;;3.65;;
18194;SDS011;9223;50.988;3.162;2024-01-25T01:42:26;13.85;;;3.72;;
18194;SDS011;9223;50.988;3.162;2024-01-25T01:48:31;20.25;;;4.93;;
18194;SDS011;9223;50.988;3.162;2024-01-25T01:54:35;18.65;;;3.80;;
18194;SDS011;9223;50.988;3.162;2024-01-25T02:00:39;19.27;;;4.57;;
18194;SDS011;9223;50.988;3.162;2024-01-25T02:06:45;26.55;;;5.50;;
18194;SDS011;9223;50.988;3.162;2024-01-25T02:12:49;17.45;;;4.22;;
18194;SDS011;9223;50.988;3.162;2024-01-25T02:18:54;19.55;;;5.25;;
18194;SDS011;9223;50.988;3.162;2024-01-25T02:25:00;13.90;;;4.03;;
18194;SDS011;9223;50.988;3.162;2024-01-25T02:31:04;15.98;;;4.05;;
18194;SDS011;9223;50.988;3.162;2024-01-25T02:37:08;19.67;;;4.30;;
18194;SDS011;9223;50.988;3.162;2024-01-25T02:43:14;27.27;;;4.80;;
18194;SDS011;9223;50.988;3.162;2024-01-25T02:49:17;24.92;;;4.70;;
18194;SDS011;9223;50.988;3.162;2024-01-25T02:55:21;19.27;;;4.47;;
18194;SDS011;9223;50.988;3.162;2024-01-25T03:01:27;24.52;;;4.70;;
18194;SDS011;9223;50.988;3.162;2024-01-25T03:07:31;19.15;;;4.28;;
18194;SDS011;9223;50.988;3.162;2024-01-25T03:13:34;17.58;;;4.28;;
18194;SDS011;9223;50.988;3.162;2024-01-25T03:19:39;19.13;;;4.10;;
18194;SDS011;9223;50.988;3.162;2024-01-25T03:25:43;20.38;;;4.75;;
18194;SDS011;9223;50.988;3.162;2024-01-25T03:31:46;19.25;;;3.70;;
18194;SDS011;9223;50.988;3.162;2024-01-25T03:37:51;11.45;;;3.75;;
18194;SDS011;9223;50.988;3.162;2024-01-25T03:43:55;20.88;;;3.80;;
18194;SDS011;9223;50.988;3.162;2024-01-25T03:49:58;14.15;;;3.90;;
18194;SDS011;9223;50.988;3.162;2024-01-25T03:56:04;19.40;;;3.95;;
18194;SDS011;9223;50.988;3.162;2024-01-25T04:02:13;16.95;;;3.60;;
18194;SDS011;9223;50.988;3.162;2024-01-25T04:08:17;17.52;;;5.45;;
18194;SDS011;9223;50.988;3.162;2024-01-25T04:14:22;10.73;;;2.75;;
18194;SDS011;9223;50.988;3.162;2024-01-25T04:20:25;14.80;;;3.88;;
18194;SDS011;9223;50.988;3.162;2024-01-25T04:26:29;17.42;;;4.22;;
18194;SDS011;9223;50.988;3.162;2024-01-25T04:32:34;16.73;;;3.55;;
18194;SDS011;9223;50.988;3.162;2024-01-25T04:38:38;18.20;;;3.40;;
18194;SDS011;9223;50.988;3.162;2024-01-25T04:44:41;14.55;;;3.75;;
18194;SDS011;9223;50.988;3.162;2024-01-25T04:50:46;17.00;;;4.10;;
18194;SDS011;9223;50.988;3.162;2024-01-25T04:56:50;15.63;;;3.50;;
18194;SDS011;9223;50.988;3.162;2024-01-25T05:02:54;13.32;;;3.40;;
18194;SDS011;9223;50.988;3.162;2024-01-25T05:08:58;16.63;;;3.47;;
18194;SDS011;9223;50.988;3.162;2024-01-25T05:15:02;15.38;;;3.45;;
18194;SDS011;9223;50.988;3.162;2024-01-25T05:21:06;19.10;;;5.88;;
18194;SDS011;9223;50.988;3.162;2024-01-25T05:27:10;19.23;;;6.30;;
18194;SDS011;9223;50.988;3.162;2024-01-25T05:33:14;29.80;;;11.90;;
18194;SDS011;9223;50.988;3.162;2024-01-25T05:39:18;15.05;;;4.68;;
18194;SDS011;9223;50.988;3.162;2024-01-25T05:45:23;13.93;;;3.85;;
18194;SDS011;9223;50.988;3.162;2024-01-25T05:51:27;13.88;;;4.43;;
18194;SDS011;9223;50.988;3.162;2024-01-25T05:57:31;14.25;;;5.68;;
18194;SDS011;9223;50.988;3.162;2024-01-25T06:03:37;20.05;;;5.95;;
18194;SDS011;9223;50.988;3.162;2024-01-25T06:09:41;31.65;;;8.98;;
18194;SDS011;9223;50.988;3.162;2024-01-25T06:15:44;20.65;;;5.82;;
18194;SDS011;9223;50.988;3.162;2024-01-25T06:21:49;90.38;;;28.05;;
18194;SDS011;9223;50.988;3.162;2024-01-25T06:27:53;29.15;;;9.32;;
18194;SDS011;9223;50.988;3.162;2024-01-25T06:33:57;81.70;;;27.05;;
18194;SDS011;9223;50.988;3.162;2024-01-25T06:40:03;108.57;;;37.40;;
18194;SDS011;9223;50.988;3.162;2024-01-25T06:46:07;25.15;;;10.63;;
18194;SDS011;9223;50.988;3.162;2024-01-25T06:52:11;75.85;;;23.27;;
18194;SDS011;9223;50.988;3.162;2024-01-25T06:58:16;17.20;;;9.20;;
18194;SDS011;9223;50.988;3.162;2024-01-25T07:04:21;23.42;;;8.15;;
18194;SDS011;9223;50.988;3.162;2024-01-25T07:10:25;91.53;;;31.58;;
18194;SDS011;9223;50.988;3.162;2024-01-25T07:16:30;43.25;;;20.25;;
18194;SDS011;9223;50.988;3.162;2024-01-25T07:22:33;18.85;;;9.15;;
18194;SDS011;9223;50.988;3.162;2024-01-25T07:28:37;26.42;;;11.57;;
18194;SDS011;9223;50.988;3.162;2024-01-25T07:34:42;23.58;;;9.82;;
18194;SDS011;9223;50.988;3.162;2024-01-25T07:40:46;21.45;;;8.85;;
18194;SDS011;9223;50.988;3.162;2024-01-25T07:46:49;20.98;;;9.10;;
18194;SDS011;9223;50.988;3.162;2024-01-25T07:52:54;26.55;;;11.20;;
18194;SDS011;9223;50.988;3.162;2024-01-25T07:58:58;28.67;;;12.18;;
18194;SDS011;9223;50.988;3.162;2024-01-25T08:05:02;24.08;;;10.77;;
18194;SDS011;9223;50.988;3.162;2024-01-25T08:11:09;34.05;;;14.10;;
18194;SDS011;9223;50.988;3.162;2024-01-25T08:17:12;23.77;;;10.98;;
18194;SDS011;9223;50.988;3.162;2024-01-25T08:23:16;38.45;;;14.48;;
18194;SDS011;9223;50.988;3.162;2024-01-25T08:29:21;25.70;;;11.00;;
18194;SDS011;9223;50.988;3.162;2024-01-25T08:35:25;19.08;;;8.43;;
18194;SDS011;9223;50.988;3.162;2024-01-25T08:41:28;18.67;;;8.23;;
18194;SDS011;9223;50.988;3.162;2024-01-25T08:47:35;19.42;;;8.20;;
18194;SDS011;9223;50.988;3.162;2024-01-25T08:53:38;21.75;;;8.23;;
18194;SDS011;9223;50.988;3.162;2024-01-25T08:59:42;35.95;;;16.35;;
18194;SDS011;9223;50.988;3.162;2024-01-25T09:05:47;51.90;;;19.52;;
18194;SDS011;9223;50.988;3.162;2024-01-25T09:11:52;33.63;;;13.80;;
18194;SDS011;9223;50.988;3.162;2024-01-25T09:17:55;42.72;;;20.27;;
18194;SDS011;9223;50.988;3.162;2024-01-25T09:24:00;30.58;;;10.68;;
18194;SDS011;9223;50.988;3.162;2024-01-25T09:30:04;16.17;;;8.63;;
18194;SDS011;9223;50.988;3.162;2024-01-25T09:36:08;21.77;;;9.55;;
18194;SDS011;9223;50.988;3.162;2024-01-25T09:42:14;24.52;;;9.25;;
18194;SDS011;9223;50.988;3.162;2024-01-25T09:48:17;20.63;;;8.68;;
18194;SDS011;9223;50.988;3.162;2024-01-25T09:54:21;18.67;;;7.78;;
18194;SDS011;9223;50.988;3.162;2024-01-25T10:00:26;19.17;;;7.90;;
18194;SDS011;9223;50.988;3.162;2024-01-25T10:06:33;17.23;;;7.78;;
18194;SDS011;9223;50.988;3.162;2024-01-25T10:12:37;20.27;;;8.30;;
18194;SDS011;9223;50.988;3.162;2024-01-25T10:18:42;23.67;;;11.00;;
18194;SDS011;9223;50.988;3.162;2024-01-25T10:24:46;38.67;;;15.82;;
18194;SDS011;9223;50.988;3.162;2024-01-25T10:30:51;48.53;;;17.90;;
18194;SDS011;9223;50.988;3.162;2024-01-25T10:36:57;51.72;;;21.92;;
18194;SDS011;9223;50.988;3.162;2024-01-25T10:43:00;26.20;;;11.68;;
18194;SDS011;9223;50.988;3.162;2024-01-25T10:49:04;19.33;;;9.23;;
18194;SDS011;9223;50.988;3.162;2024-01-25T10:55:09;17.23;;;9.73;;
18194;SDS011;9223;50.988;3.162;2024-01-25T11:01:16;9.25;;;6.07;;
18194;SDS011;9223;50.988;3.162;2024-01-25T11:07:20;11.73;;;8.52;;
18194;SDS011;9223;50.988;3.162;2024-01-25T11:13:26;13.43;;;7.28;;
18194;SDS011;9223;50.988;3.162;2024-01-25T11:19:32;13.50;;;7.38;;
18194;SDS011;9223;50.988;3.162;2024-01-25T11:25:37;12.35;;;6.18;;
18194;SDS011;9223;50.988;3.162;2024-01-25T11:31:42;11.30;;;6.72;;
18194;SDS011;9223;50.988;3.162;2024-01-25T11:37:46;11.20;;;7.18;;
18194;SDS011;9223;50.988;3.162;2024-01-25T11:43:50;7.15;;;4.72;;
18194;SDS011;9223;50.988;3.162;2024-01-25T11:49:54;7.35;;;4.45;;
18194;SDS011;9223;50.988;3.162;2024-01-25T11:55:58;9.15;;;5.18;;
18194;SDS011;9223;50.988;3.162;2024-01-25T12:02:02;8.05;;;4.70;;
18194;SDS011;9223;50.988;3.162;2024-01-25T12:08:10;10.45;;;7.38;;
18194;SDS011;9223;50.988;3.162;2024-01-25T12:14:16;11.18;;;7.38;;
18194;SDS011;9223;50.988;3.162;2024-01-25T12:20:20;8.23;;;5.13;;
18194;SDS011;9223;50.988;3.162;2024-01-25T12:26:25;12.75;;;8.00;;
18194;SDS011;9223;50.988;3.162;2024-01-25T12:32:28;10.75;;;5.47;;
18194;SDS011;9223;50.988;3.162;2024-01-25T12:38:34;12.63;;;7.63;;
18194;SDS011;9223;50.988;3.162;2024-01-25T12:44:39;10.77;;;6.40;;
18194;SDS011;9223;50.988;3.162;2024-01-25T12:50:43;14.73;;;8.48;;
18194;SDS011;9223;50.988;3.162;2024-01-25T12:56:46;17.98;;;10.25;;
18194;SDS011;9223;50.988;3.162;2024-01-25T13:02:53;17.40;;;11.40;;
18194;SDS011;9223;50.988;3.162;2024-01-25T13:08:58;16.85;;;9.35;;
18194;SDS011;9223;50.988;3.162;2024-01-25T13:15:01;16.55;;;9.90;;
18194;SDS011;9223;50.988;3.162;2024-01-25T13:21:06;11.23;;;5.93;;
18194;SDS011;9223;50.988;3.162;2024-01-25T13:27:09;11.45;;;7.40;;
18194;SDS011;9223;50.988;3.162;2024-01-25T13:33:13;15.55;;;8.32;;
18194;SDS011;9223;50.988;3.162;2024-01-25T13:39:18;10.07;;;5.65;;
18194;SDS011;9223;50.988;3.162;2024-01-25T13:45:23;11.38;;;7.05;;
18194;SDS011;9223;50.988;3.162;2024-01-25T13:51:26;10.73;;;5.60;;
18194;SDS011;9223;50.988;3.162;2024-01-25T13:57:31;8.18;;;5.63;;
18194;SDS011;9223;50.988;3.162;2024-01-25T14:03:35;9.48;;;6.15;;
18194;SDS011;9223;50.988;3.162;2024-01-25T14:09:39;10.73;;;5.93;;
18194;SDS011;9223;50.988;3.162;2024-01-25T14:15:43;10.52;;;5.22;;
18194;SDS011;9223;50.988;3.162;2024-01-25T14:21:47;10.13;;;5.30;;
18194;SDS011;9223;50.988;3.162;2024-01-25T14:27:55;8.48;;;4.43;;
18194;SDS011;9223;50.988;3.162;2024-01-25T14:34:01;8.00;;;4.70;;
18194;SDS011;9223;50.988;3.162;2024-01-25T14:40:05;10.27;;;5.53;;
18194;SDS011;9223;50.988;3.162;2024-01-25T14:46:28;7.45;;;4.32;;
18194;SDS011;9223;50.988;3.162;2024-01-25T14:52:33;7.93;;;4.47;;
18194;SDS011;9223;50.988;3.162;2024-01-25T14:58:37;11.65;;;5.28;;
18194;SDS011;9223;50.988;3.162;2024-01-25T15:04:40;6.00;;;3.63;;
18194;SDS011;9223;50.988;3.162;2024-01-25T15:10:45;6.10;;;4.05;;
18194;SDS011;9223;50.988;3.162;2024-01-25T15:16:49;6.38;;;4.07;;
18194;SDS011;9223;50.988;3.162;2024-01-25T15:22:52;10.88;;;6.35;;
18194;SDS011;9223;50.988;3.162;2024-01-25T15:29:00;9.88;;;5.53;;
18194;SDS011;9223;50.988;3.162;2024-01-25T15:35:03;9.52;;;5.50;;
18194;SDS011;9223;50.988;3.162;2024-01-25T15:41:07;9.25;;;5.80;;
18194;SDS011;9223;50.988;3.162;2024-01-25T15:47:13;11.90;;;6.55;;
18194;SDS011;9223;50.988;3.162;2024-01-25T15:53:17;11.75;;;6.32;;
18194;SDS011;9223;50.988;3.162;2024-01-25T15:59:20;14.98;;;6.90;;
18194;SDS011;9223;50.988;3.162;2024-01-25T16:05:25;9.85;;;6.32;;
18194;SDS011;9223;50.988;3.162;2024-01-25T16:11:29;13.43;;;6.30;;
18194;SDS011;9223;50.988;3.162;2024-01-25T16:17:32;10.20;;;5.60;;
18194;SDS011;9223;50.988;3.162;2024-01-25T16:23:37;6.75;;;5.30;;
18194;SDS011;9223;50.988;3.162;2024-01-25T16:29:41;6.70;;;5.13;;
18194;SDS011;9223;50.988;3.162;2024-01-25T16:35:45;6.88;;;6.18;;
18194;SDS011;9223;50.988;3.162;2024-01-25T16:41:49;10.13;;;7.93;;
18194;SDS011;9223;50.988;3.162;2024-01-25T16:47:53;8.13;;;6.63;;
18194;SDS011;9223;50.988;3.162;2024-01-25T16:53:56;5.90;;;3.92;;
18194;SDS011;9223;50.988;3.162;2024-01-25T17:00:01;5.63;;;3.85;;
18194;SDS011;9223;50.988;3.162;2024-01-25T17:06:05;3.75;;;3.45;;
18194;SDS011;9223;50.988;3.162;2024-01-25T17:12:10;4.57;;;3.42;;
18194;SDS011;9223;50.988;3.162;2024-01-25T17:18:18;5.43;;;3.65;;
18194;SDS011;9223;50.988;3.162;2024-01-25T17:24:21;3.60;;;3.30;;
18194;SDS011;9223;50.988;3.162;2024-01-25T17:30:25;3.92;;;2.83;;
18194;SDS011;9223;50.988;3.162;2024-01-25T17:36:30;3.70;;;3.10;;
18194;SDS011;9223;50.988;3.162;2024-01-25T17:42:33;3.65;;;3.10;;
18194;SDS011;9223;50.988;3.162;2024-01-25T17:48:37;7.15;;;5.07;;
18194;SDS011;9223;50.988;3.162;2024-01-25T17:54:42;10.65;;;6.03;;
18194;SDS011;9223;50.988;3.162;2024-01-25T18:00:46;4.60;;;3.38;;
18194;SDS011;9223;50.988;3.162;2024-01-25T18:06:50;7.15;;;4.63;;
18194;SDS011;9223;50.988;3.162;2024-01-25T18:12:54;6.38;;;4.35;;
18194;SDS011;9223;50.988;3.162;2024-01-25T18:18:58;3.92;;;3.28;;
18194;SDS011;9223;50.988;3.162;2024-01-25T18:25:02;2.63;;;2.42;;
18194;SDS011;9223;50.988;3.162;2024-01-25T18:31:07;4.00;;;2.80;;
18194;SDS011;9223;50.988;3.162;2024-01-25T18:37:11;4.70;;;3.47;;
18194;SDS011;9223;50.988;3.162;2024-01-25T18:43:15;2.85;;;2.28;;
18194;SDS011;9223;50.988;3.162;2024-01-25T18:49:21;5.35;;;3.25;;
18194;SDS011;9223;50.988;3.162;2024-01-25T18:55:25;6.95;;;5.45;;
18194;SDS011;9223;50.988;3.162;2024-01-25T19:01:29;7.40;;;5.32;;
18194;SDS011;9223;50.988;3.162;2024-01-25T19:07:35;6.35;;;4.22;;
18194;SDS011;9223;50.988;3.162;2024-01-25T19:13:40;3.90;;;3.50;;
18194;SDS011;9223;50.988;3.162;2024-01-25T19:19:43;5.95;;;4.40;;
18194;SDS011;9223;50.988;3.162;2024-01-25T19:25:48;6.35;;;4.90;;
18194;SDS011;9223;50.988;3.162;2024-01-25T19:31:53;6.90;;;5.43;;
18194;SDS011;9223;50.988;3.162;2024-01-25T19:37:57;4.70;;;4.18;;
18194;SDS011;9223;50.988;3.162;2024-01-25T19:44:01;6.22;;;5.10;;
18194;SDS011;9223;50.988;3.162;2024-01-25T19:50:06;8.27;;;5.22;;
18194;SDS011;9223;50.988;3.162;2024-01-25T19:56:10;3.22;;;2.92;;
18194;SDS011;9223;50.988;3.162;2024-01-25T20:02:18;6.88;;;4.80;;
18194;SDS011;9223;50.988;3.162;2024-01-25T20:08:22;5.15;;;4.53;;
18194;SDS011;9223;50.988;3.162;2024-01-25T20:14:27;5.40;;;4.65;;
18194;SDS011;9223;50.988;3.162;2024-01-25T20:20:32;6.70;;;4.45;;
18194;SDS011;9223;50.988;3.162;2024-01-25T20:26:48;6.07;;;4.63;;
18194;SDS011;9223;50.988;3.162;2024-01-25T20:32:52;10.70;;;6.45;;
18194;SDS011;9223;50.988;3.162;2024-01-25T20:38:57;6.88;;;5.13;;
18194;SDS011;9223;50.988;3.162;2024-01-25T20:45:01;6.07;;;4.38;;
18194;SDS011;9223;50.988;3.162;2024-01-25T20:51:05;3.78;;;3.13;;
18194;SDS011;9223;50.988;3.162;2024-01-25T20:57:09;4.10;;;3.70;;
18194;SDS011;9223;50.988;3.162;2024-01-25T21:03:13;4.25;;;3.83;;
18194;SDS011;9223;50.988;3.162;2024-01-25T21:09:17;5.75;;;4.45;;
18194;SDS011;9223;50.988;3.162;2024-01-25T21:15:23;5.85;;;4.45;;
18194;SDS011;9223;50.988;3.162;2024-01-25T21:21:26;5.15;;;4.65;;
18194;SDS011;9223;50.988;3.162;2024-01-25T21:27:30;7.38;;;5.90;;
18194;SDS011;9223;50.988;3.162;2024-01-25T21:33:35;7.03;;;5.00;;
18194;SDS011;9223;50.988;3.162;2024-01-25T21:39:39;7.47;;;4.75;;
18194;SDS011;9223;50.988;3.162;2024-01-25T21:45:42;6.43;;;4.88;;
18194;SDS011;9223;50.988;3.162;2024-01-25T21:51:47;6.18;;;4.70;;
18194;SDS011;9223;50.988;3.162;2024-01-25T21:57:52;6.43;;;4.47;;
18194;SDS011;9223;50.988;3.162;2024-01-25T22:03:58;6.55;;;4.32;;
18194;SDS011;9223;50.988;3.162;2024-01-25T22:10:03;5.53;;;3.90;;
18194;SDS011;9223;50.988;3.162;2024-01-25T22:16:07;5.45;;;3.00;;
18194;SDS011;9223;50.988;3.162;2024-01-25T22:22:11;3.90;;;2.78;;
18194;SDS011;9223;50.988;3.162;2024-01-25T22:28:16;5.80;;;2.97;;
18194;SDS011;9223;50.988;3.162;2024-01-25T22:34:19;3.00;;;2.67;;
18194;SDS011;9223;50.988;3.162;2024-01-25T22:40:23;5.93;;;3.30;;
18194;SDS011;9223;50.988;3.162;2024-01-25T22:46:28;3.35;;;2.72;;
18194;SDS011;9223;50.988;3.162;2024-01-25T22:52:31;2.90;;;2.42;;
18194;SDS011;9223;50.988;3.162;2024-01-25T22:58:35;3.55;;;2.50;;
18194;SDS011;9223;50.988;3.162;2024-01-25T23:04:40;2.45;;;2.15;;
18194;SDS011;9223;50.988;3.162;2024-01-25T23:10:44;3.72;;;2.35;;
18194;SDS011;9223;50.988;3.162;2024-01-25T23:16:48;3.67;;;2.25;;
18194;SDS011;9223;50.988;3.162;2024-01-25T23:22:53;2.53;;;1.85;;
18194;SDS011;9223;50.988;3.162;2024-01-25T23:28:57;2.45;;;1.60;;
18194;SDS011;9223;50.988;3.162;2024-01-25T23:35:00;2.53;;;1.92;;
18194;SDS011;9223;50.988;3.162;2024-01-25T23:41:06;5.35;;;1.77;;
18194;SDS011;9223;50.988;3.162;2024-01-25T23:47:10;3.20;;;2.63;;
18194;SDS011;9223;50.988;3.162;2024-01-25T23:53:14;3.53;;;2.40;;
18194;SDS011;9223;50.988;3.162;2024-01-25T23:59:19;4.13;;;2.80;;
